Flight Briefing for CPX799

Departure Arrival
Miami International Airport (KMIA)
Click to view FAA NOTAMS
Aeropuerto Internacional Ezeiza/Ministro Pistarini (SAEZ)
Click to view FAA NOTAMS
Departure Time Arrival Time
N/A N/A
Aircraft Distance
B747-400BCF 3849nm
Departure METAR Arrival METAR
KMIA 221153Z 32006KT 10SM CLR 16/12 A3007 RMK AO2 SLP184 T01560117 10172 20150 53016 SAEZ 221200Z 22002KT 8000 NSC 14/13 Q1020 NOSIG
Suggested Route
EONNS2 EONNS A509 URSUS UL795 DIBOK UL795 LOGON UL793 SIMUR UL793 AKNOV UL793 SASNO UL793 ROKES UL793 XOLAT UL793 AKPEL UL793 SIS UL793 GUA UW65 PAGON PAGON6B


View recent IFR Routes data
Notes



Charts and Procedures

Charts for KMIA
No chart available
Charts for SAEZ
No chart available

Windy.com Weather Map